Time;durP1;ratioP1;P1;durP2;ratioP2;P2;SDS_P1;SDS_P2;PMS_P1;PMS_P2;Temp;Humidity;BMP_temperature;BMP_pressure;BME280_temperature;BME280_humidity;BME280_pressure;Samples;Min_cycle;Max_cycle;Signal;HPM_P1;HPM_P2
2023/06/06 00:00:05;;;;;;;7.70;4.60;;;;;;;;;;5100731;28;20459;-60
2023/06/06 00:02:32;;;;;;;9.07;5.03;;;;;;;;;;5100126;28;20510;-59
2023/06/06 00:05:00;;;;;;;10.20;5.57;;;;;;;;;;5099708;28;20454;-59
2023/06/06 00:07:28;;;;;;;6.40;4.33;;;;;;;;;;5099264;28;21045;-59
2023/06/06 00:09:55;;;;;;;5.90;4.77;;;;;;;;;;5099692;28;20447;-60
2023/06/06 00:12:21;;;;;;;10.47;5.10;;;;;;;;;;5098585;28;20502;-60
2023/06/06 00:14:47;;;;;;;8.70;5.17;;;;;;;;;;5100068;28;20526;-60
2023/06/06 00:17:14;;;;;;;8.30;5.10;;;;;;;;;;5099067;28;20502;-60
2023/06/06 00:19:42;;;;;;;7.37;5.07;;;;;;;;;;5099349;28;20485;-60
2023/06/06 00:22:10;;;;;;;8.93;5.37;;;;;;;;;;5090002;28;20474;-60
2023/06/06 00:24:36;;;;;;;7.87;4.87;;;;;;;;;;5099480;28;20447;-61
2023/06/06 00:27:03;;;;;;;10.53;4.60;;;;;;;;;;5099057;28;20490;-61
2023/06/06 00:29:29;;;;;;;6.17;4.30;;;;;;;;;;5099777;28;20534;-61
2023/06/06 00:31:55;;;;;;;7.20;5.13;;;;;;;;;;5098558;28;20506;-61
2023/06/06 00:34:22;;;;;;;8.73;4.97;;;;;;;;;;5099857;28;20465;-61
2023/06/06 00:36:48;;;;;;;10.57;5.60;;;;;;;;;;5103580;28;20482;-61
2023/06/06 00:39:16;;;;;;;7.77;5.53;;;;;;;;;;5103841;28;20449;-61
2023/06/06 00:41:42;;;;;;;8.27;5.07;;;;;;;;;;5102810;28;20471;-60
2023/06/06 00:44:09;;;;;;;8.47;5.00;;;;;;;;;;5104091;28;20510;-61
2023/06/06 00:46:35;;;;;;;7.50;5.10;;;;;;;;;;5102187;28;20550;-61
2023/06/06 00:49:01;;;;;;;8.43;4.77;;;;;;;;;;5102862;28;20514;-61
2023/06/06 00:51:28;;;;;;;8.13;5.23;;;;;;;;;;5102263;28;20508;-61
2023/06/06 00:53:55;;;;;;;10.37;6.27;;;;;;;;;;5103034;28;20449;-62
2023/06/06 00:56:27;;;;;;;8.10;5.30;;;;;;;;;;5095033;28;20546;-60
2023/06/06 00:58:54;;;;;;;8.20;4.80;;;;;;;;;;5102617;28;21013;-61
2023/06/06 01:01:20;;;;;;;9.77;5.00;;;;;;;;;;5102185;28;20627;-60
2023/06/06 01:03:46;;;;;;;8.10;5.40;;;;;;;;;;5103479;28;20530;-60
2023/06/06 01:06:14;;;;;;;12.70;5.60;;;;;;;;;;5103097;28;20451;-61
2023/06/06 01:08:40;;;;;;;8.67;5.60;;;;;;;;;;5103452;28;20522;-60
2023/06/06 01:11:11;;;;;;;8.53;5.57;;;;;;;;;;5102984;28;20538;-60
2023/06/06 01:13:42;;;;;;;7.70;5.67;;;;;;;;;;5103597;28;20784;-61
2023/06/06 01:16:13;;;;;;;14.47;5.43;;;;;;;;;;5104281;28;20829;-60
2023/06/06 01:18:39;;;;;;;15.03;5.73;;;;;;;;;;5103560;28;20534;-60
2023/06/06 01:21:06;;;;;;;9.97;5.50;;;;;;;;;;5103100;28;20463;-60
2023/06/06 01:23:36;;;;;;;11.10;5.10;;;;;;;;;;5103859;28;20521;-61
2023/06/06 01:26:04;;;;;;;10.87;6.00;;;;;;;;;;5102869;28;20457;-61
2023/06/06 01:28:31;;;;;;;13.67;6.07;;;;;;;;;;5102800;28;20862;-61
2023/06/06 01:30:58;;;;;;;16.00;6.37;;;;;;;;;;5103446;28;20463;-61
2023/06/06 01:33:27;;;;;;;11.13;5.80;;;;;;;;;;5103560;28;20470;-61
2023/06/06 01:36:00;;;;;;;9.30;5.63;;;;;;;;;;5102646;28;20502;-60
2023/06/06 01:38:30;;;;;;;13.13;5.80;;;;;;;;;;5098906;28;20534;-61
2023/06/06 01:40:59;;;;;;;9.43;6.80;;;;;;;;;;5102748;28;20479;-60
2023/06/06 01:43:27;;;;;;;11.87;5.40;;;;;;;;;;5102337;28;20490;-60
2023/06/06 01:45:54;;;;;;;8.73;5.37;;;;;;;;;;5101885;28;20538;-61
2023/06/06 01:48:20;;;;;;;10.07;6.53;;;;;;;;;;5102243;28;20449;-62
2023/06/06 01:50:47;;;;;;;9.60;6.17;;;;;;;;;;5101619;28;20876;-61
2023/06/06 01:53:13;;;;;;;11.23;6.13;;;;;;;;;;5102997;28;20535;-60
2023/06/06 01:55:41;;;;;;;11.80;5.70;;;;;;;;;;5101398;28;20455;-61
2023/06/06 01:58:09;;;;;;;9.60;6.50;;;;;;;;;;5102932;28;20469;-62
2023/06/06 02:00:36;;;;;;;7.60;5.27;;;;;;;;;;5102646;28;20478;-59
2023/06/06 02:03:02;;;;;;;11.93;4.90;;;;;;;;;;5103117;28;20577;-61
2023/06/06 02:05:29;;;;;;;7.30;5.57;;;;;;;;;;5101607;28;20447;-60
2023/06/06 02:07:55;;;;;;;8.83;6.50;;;;;;;;;;5102351;28;20474;-61
2023/06/06 02:10:22;;;;;;;12.30;6.90;;;;;;;;;;5101905;28;20455;-60
2023/06/06 02:12:48;;;;;;;8.00;5.70;;;;;;;;;;5101058;28;20553;-60
2023/06/06 02:15:16;;;;;;;10.43;6.10;;;;;;;;;;5101466;28;20453;-61
2023/06/06 02:17:43;;;;;;;8.17;5.90;;;;;;;;;;5097096;28;20466;-60
2023/06/06 02:20:10;;;;;;;8.87;6.43;;;;;;;;;;5100415;28;20487;-60
2023/06/06 02:22:37;;;;;;;8.47;5.40;;;;;;;;;;5101666;28;20493;-60
2023/06/06 02:25:04;;;;;;;12.03;6.10;;;;;;;;;;5101330;28;20523;-60
2023/06/06 02:27:31;;;;;;;9.00;6.17;;;;;;;;;;5101877;28;20462;-60
2023/06/06 02:29:58;;;;;;;10.30;6.43;;;;;;;;;;5101527;28;20489;-59
2023/06/06 02:32:25;;;;;;;8.00;5.77;;;;;;;;;;5101855;28;20862;-60
2023/06/06 02:34:52;;;;;;;11.10;7.50;;;;;;;;;;5101778;28;20538;-60
2023/06/06 02:37:18;;;;;;;10.67;6.93;;;;;;;;;;5102307;28;20443;-60
2023/06/06 02:39:44;;;;;;;8.10;6.13;;;;;;;;;;5100989;28;20455;-59
2023/06/06 02:42:11;;;;;;;11.37;7.00;;;;;;;;;;5101686;28;20482;-59
2023/06/06 02:44:37;;;;;;;10.80;5.80;;;;;;;;;;5101443;28;20482;-59
2023/06/06 02:47:03;;;;;;;12.40;5.90;;;;;;;;;;5101014;28;20511;-60
2023/06/06 02:49:31;;;;;;;12.23;7.23;;;;;;;;;;5100442;28;20543;-60
2023/06/06 02:51:58;;;;;;;11.17;5.97;;;;;;;;;;5100980;28;20545;-59
2023/06/06 02:54:24;;;;;;;9.93;6.63;;;;;;;;;;5101014;28;20447;-59
2023/06/06 02:56:50;;;;;;;9.93;5.90;;;;;;;;;;5100868;28;20522;-60
2023/06/06 02:59:17;;;;;;;11.47;7.50;;;;;;;;;;5101415;28;20461;-60
2023/06/06 03:01:44;;;;;;;10.33;6.57;;;;;;;;;;5102060;28;20517;-59
2023/06/06 03:04:11;;;;;;;10.40;6.50;;;;;;;;;;5101574;28;20451;-59
2023/06/06 03:06:40;;;;;;;7.60;5.40;;;;;;;;;;5101274;28;20467;-59
2023/06/06 03:09:07;;;;;;;11.57;6.93;;;;;;;;;;5101819;28;20431;-60
2023/06/06 03:11:34;;;;;;;13.03;6.90;;;;;;;;;;5102049;28;20946;-59
2023/06/06 03:14:00;;;;;;;14.43;6.70;;;;;;;;;;5101546;28;20443;-59
2023/06/06 03:16:27;;;;;;;14.97;6.63;;;;;;;;;;5101010;28;20479;-59
2023/06/06 03:18:53;;;;;;;12.20;7.10;;;;;;;;;;5100224;28;20539;-59
2023/06/06 03:21:19;;;;;;;7.43;5.70;;;;;;;;;;5100576;28;21131;-58
2023/06/06 03:23:47;;;;;;;10.17;6.33;;;;;;;;;;5100437;28;20536;-60
2023/06/06 03:26:14;;;;;;;10.80;7.87;;;;;;;;;;5099312;28;20515;-63
2023/06/06 03:28:40;;;;;;;9.67;6.57;;;;;;;;;;5100343;28;20451;-60
2023/06/06 03:31:07;;;;;;;8.40;6.00;;;;;;;;;;5100204;28;20457;-62
2023/06/06 03:33:35;;;;;;;12.40;8.20;;;;;;;;;;5094114;28;20466;-62
2023/06/06 03:36:02;;;;;;;9.90;6.60;;;;;;;;;;5099862;28;20483;-61
2023/06/06 03:38:29;;;;;;;12.10;7.90;;;;;;;;;;5100570;28;20447;-64
2023/06/06 03:40:57;;;;;;;11.67;8.20;;;;;;;;;;5099996;28;20927;-61
2023/06/06 03:43:23;;;;;;;10.03;6.30;;;;;;;;;;5101044;28;20471;-60
2023/06/06 03:45:49;;;;;;;12.50;6.10;;;;;;;;;;5100066;28;21007;-60
2023/06/06 03:48:16;;;;;;;18.57;7.20;;;;;;;;;;5100420;28;20518;-60
2023/06/06 03:50:42;;;;;;;13.70;7.23;;;;;;;;;;5100122;28;20473;-60
2023/06/06 03:53:08;;;;;;;12.90;7.63;;;;;;;;;;5099308;28;20527;-59
2023/06/06 03:55:37;;;;;;;10.83;6.47;;;;;;;;;;5098679;28;20555;-60
2023/06/06 03:58:05;;;;;;;10.53;6.93;;;;;;;;;;5100359;28;20454;-63
2023/06/06 04:00:31;;;;;;;10.50;7.10;;;;;;;;;;5099922;28;20490;-60
2023/06/06 04:02:57;;;;;;;10.30;6.87;;;;;;;;;;5100396;28;20482;-60
2023/06/06 04:05:24;;;;;;;14.23;7.30;;;;;;;;;;5099562;28;20532;-59
2023/06/06 04:07:50;;;;;;;15.33;6.20;;;;;;;;;;5100052;28;20963;-58
2023/06/06 04:10:18;;;;;;;10.17;7.43;;;;;;;;;;5099056;28;20520;-58
2023/06/06 04:12:45;;;;;;;12.73;7.20;;;;;;;;;;5099502;28;21226;-60
2023/06/06 04:15:13;;;;;;;8.73;6.10;;;;;;;;;;5100331;28;20511;-58
2023/06/06 04:17:39;;;;;;;8.97;7.07;;;;;;;;;;5101139;28;20470;-60
2023/06/06 04:20:08;;;;;;;10.77;6.90;;;;;;;;;;5099957;28;20454;-60
2023/06/06 04:22:34;;;;;;;9.67;6.30;;;;;;;;;;5100109;28;20510;-59
2023/06/06 04:25:01;;;;;;;8.60;5.80;;;;;;;;;;5099674;28;20443;-58
2023/06/06 04:27:28;;;;;;;10.20;6.77;;;;;;;;;;5100562;28;20449;-58
2023/06/06 04:29:57;;;;;;;11.43;6.07;;;;;;;;;;5099730;28;20454;-61
2023/06/06 04:32:25;;;;;;;9.20;7.53;;;;;;;;;;5107565;28;20446;-61
2023/06/06 04:34:52;;;;;;;10.67;6.43;;;;;;;;;;5101120;28;20489;-58
2023/06/06 04:37:18;;;;;;;10.67;6.83;;;;;;;;;;5096371;28;20482;-60
2023/06/06 04:39:52;;;;;;;9.47;6.73;;;;;;;;;;5099651;28;20462;-61
2023/06/06 04:42:19;;;;;;;11.27;6.33;;;;;;;;;;5099824;28;20483;-61
2023/06/06 04:44:46;;;;;;;10.40;7.27;;;;;;;;;;5099523;28;20598;-60
2023/06/06 04:47:12;;;;;;;8.20;6.40;;;;;;;;;;5107689;28;20491;-60
2023/06/06 04:49:40;;;;;;;11.03;7.53;;;;;;;;;;5105964;28;20463;-60
2023/06/06 04:52:08;;;;;;;8.50;7.30;;;;;;;;;;5099464;28;20447;-60
2023/06/06 04:54:36;;;;;;;11.57;7.63;;;;;;;;;;5091663;28;20591;-59
2023/06/06 04:57:03;;;;;;;11.23;7.37;;;;;;;;;;5095909;28;20534;-59
2023/06/06 04:59:32;;;;;;;9.83;7.20;;;;;;;;;;5100130;28;20467;-60
2023/06/06 05:01:59;;;;;;;9.07;7.10;;;;;;;;;;5098117;28;20455;-59
2023/06/06 05:04:25;;;;;;;13.43;6.73;;;;;;;;;;5098977;28;20454;-61
2023/06/06 05:06:53;;;;;;;10.50;7.17;;;;;;;;;;5099588;28;20463;-60
2023/06/06 05:09:19;;;;;;;9.20;7.70;;;;;;;;;;5099792;28;20475;-60
2023/06/06 05:11:48;;;;;;;8.90;7.20;;;;;;;;;;5098239;28;20451;-61
2023/06/06 05:14:14;;;;;;;11.83;7.57;;;;;;;;;;5100044;28;20462;-60
2023/06/06 05:16:41;;;;;;;12.73;7.50;;;;;;;;;;5100086;28;20967;-58
2023/06/06 05:19:07;;;;;;;10.13;7.30;;;;;;;;;;5099671;28;20451;-59
2023/06/06 05:21:34;;;;;;;10.40;7.30;;;;;;;;;;5100396;28;20545;-58
2023/06/06 05:24:01;;;;;;;8.80;6.77;;;;;;;;;;5104375;28;20486;-59
2023/06/06 05:26:30;;;;;;;9.20;7.10;;;;;;;;;;5103286;28;20534;-60
2023/06/06 05:28:56;;;;;;;9.70;7.37;;;;;;;;;;5103995;28;20488;-58
2023/06/06 05:31:22;;;;;;;14.83;7.20;;;;;;;;;;5103496;28;20482;-61
2023/06/06 05:33:49;;;;;;;9.07;7.17;;;;;;;;;;5103577;28;20991;-59
2023/06/06 05:36:15;;;;;;;10.17;6.80;;;;;;;;;;5102738;28;20507;-60
2023/06/06 05:38:42;;;;;;;9.30;7.60;;;;;;;;;;5100826;28;20909;-61
2023/06/06 05:41:09;;;;;;;10.20;7.07;;;;;;;;;;5102153;28;21377;-59
2023/06/06 05:43:36;;;;;;;13.17;8.23;;;;;;;;;;5102402;28;21227;-58
2023/06/06 05:46:03;;;;;;;8.87;7.00;;;;;;;;;;5103521;28;20879;-60
2023/06/06 05:48:29;;;;;;;12.67;8.20;;;;;;;;;;5103598;28;20523;-59
2023/06/06 05:50:56;;;;;;;12.60;7.27;;;;;;;;;;5102551;28;20504;-64
2023/06/06 05:53:23;;;;;;;9.43;6.40;;;;;;;;;;5103317;28;20475;-61
2023/06/06 05:55:50;;;;;;;7.20;6.50;;;;;;;;;;5102374;28;20469;-61
2023/06/06 05:58:17;;;;;;;8.07;7.00;;;;;;;;;;5102874;28;20531;-59
2023/06/06 06:00:44;;;;;;;10.50;7.70;;;;;;;;;;5102260;28;20546;-62
2023/06/06 06:03:11;;;;;;;8.00;7.07;;;;;;;;;;5102541;28;20991;-61
2023/06/06 06:05:37;;;;;;;9.17;7.10;;;;;;;;;;5103083;28;20490;-62
2023/06/06 06:08:06;;;;;;;7.30;6.23;;;;;;;;;;5103015;28;20526;-61
2023/06/06 06:10:33;;;;;;;8.43;7.00;;;;;;;;;;5102924;28;20455;-60
2023/06/06 06:13:00;;;;;;;11.73;7.60;;;;;;;;;;5102990;28;20523;-63
2023/06/06 06:15:31;;;;;;;11.67;8.33;;;;;;;;;;5103209;28;20447;-60
2023/06/06 06:17:57;;;;;;;9.67;6.93;;;;;;;;;;5094100;28;20514;-60
2023/06/06 06:20:24;;;;;;;10.10;7.40;;;;;;;;;;5101762;28;20459;-62
2023/06/06 06:22:50;;;;;;;13.63;8.10;;;;;;;;;;5102940;28;20577;-60
2023/06/06 06:25:17;;;;;;;10.57;8.07;;;;;;;;;;5101870;28;20526;-58
2023/06/06 06:27:43;;;;;;;8.70;6.27;;;;;;;;;;5102585;28;20451;-60
2023/06/06 06:30:10;;;;;;;11.07;6.87;;;;;;;;;;5102349;28;20986;-60
2023/06/06 06:32:39;;;;;;;8.70;7.50;;;;;;;;;;5102344;28;20557;-58
2023/06/06 06:35:06;;;;;;;12.10;7.80;;;;;;;;;;5102301;28;20459;-62
2023/06/06 06:37:36;;;;;;;9.73;7.30;;;;;;;;;;5102873;28;20455;-61
2023/06/06 06:40:05;;;;;;;9.87;6.43;;;;;;;;;;5102436;28;20549;-59
2023/06/06 06:42:31;;;;;;;8.63;6.60;;;;;;;;;;5102245;28;20947;-59
2023/06/06 06:44:57;;;;;;;10.60;7.70;;;;;;;;;;5102392;28;20566;-61
2023/06/06 06:47:24;;;;;;;8.77;7.20;;;;;;;;;;5102403;28;20490;-60
2023/06/06 06:49:52;;;;;;;12.90;6.60;;;;;;;;;;5101628;28;20453;-59
2023/06/06 06:52:19;;;;;;;9.53;7.00;;;;;;;;;;5102064;28;20447;-61
2023/06/06 06:54:46;;;;;;;14.40;6.30;;;;;;;;;;5095295;28;20533;-60
2023/06/06 06:57:12;;;;;;;13.60;6.63;;;;;;;;;;5101983;28;20447;-59
2023/06/06 06:59:39;;;;;;;6.87;5.97;;;;;;;;;;5102139;28;20534;-59
2023/06/06 07:02:05;;;;;;;8.97;6.53;;;;;;;;;;5102210;28;20550;-58
2023/06/06 07:04:32;;;;;;;8.73;7.47;;;;;;;;;;5101209;28;20716;-60
2023/06/06 07:07:01;;;;;;;8.07;6.20;;;;;;;;;;5102388;28;20498;-59
2023/06/06 07:09:27;;;;;;;13.03;7.40;;;;;;;;;;5101786;28;20455;-59
2023/06/06 07:11:54;;;;;;;9.20;7.20;;;;;;;;;;5101386;28;20454;-59
2023/06/06 07:14:20;;;;;;;8.60;6.40;;;;;;;;;;5102009;28;20469;-60
2023/06/06 07:16:48;;;;;;;10.73;7.13;;;;;;;;;;5101818;28;20453;-61
2023/06/06 07:19:14;;;;;;;12.50;6.60;;;;;;;;;;5101866;28;20455;-61
2023/06/06 07:21:41;;;;;;;10.20;7.00;;;;;;;;;;5101337;28;20447;-58
2023/06/06 07:24:09;;;;;;;10.40;6.60;;;;;;;;;;5101422;28;20557;-61
2023/06/06 07:26:35;;;;;;;11.60;6.47;;;;;;;;;;5100651;28;20454;-59
2023/06/06 07:29:02;;;;;;;8.97;6.40;;;;;;;;;;5101522;28;20491;-59
2023/06/06 07:31:29;;;;;;;11.37;7.00;;;;;;;;;;5101487;28;20478;-59
2023/06/06 07:33:55;;;;;;;10.03;6.13;;;;;;;;;;5101587;28;20431;-58
2023/06/06 07:36:22;;;;;;;8.23;6.57;;;;;;;;;;5101150;28;20464;-58
2023/06/06 07:38:48;;;;;;;8.93;6.00;;;;;;;;;;5101991;28;20452;-58
2023/06/06 07:41:16;;;;;;;9.00;6.40;;;;;;;;;;5101351;28;20451;-57
2023/06/06 07:43:42;;;;;;;7.40;5.33;;;;;;;;;;5100802;28;20542;-57
2023/06/06 07:46:08;;;;;;;11.10;6.40;;;;;;;;;;5101432;28;20485;-57
2023/06/06 07:48:35;;;;;;;7.30;5.37;;;;;;;;;;5101260;28;20465;-57
2023/06/06 07:51:02;;;;;;;7.27;5.97;;;;;;;;;;5100795;28;20522;-57
2023/06/06 07:53:28;;;;;;;7.10;5.60;;;;;;;;;;5101109;28;20500;-57
2023/06/06 07:55:55;;;;;;;7.20;5.10;;;;;;;;;;5099946;28;20451;-62
2023/06/06 07:58:26;;;;;;;6.50;5.30;;;;;;;;;;5101366;28;21015;-62
2023/06/06 08:00:52;;;;;;;7.23;5.53;;;;;;;;;;5100710;28;20459;-61
2023/06/06 08:03:19;;;;;;;7.47;5.40;;;;;;;;;;5100873;28;20526;-60
2023/06/06 08:05:45;;;;;;;8.67;5.93;;;;;;;;;;5100524;28;20522;-59
2023/06/06 08:08:11;;;;;;;5.60;5.00;;;;;;;;;;5101010;28;20538;-60
2023/06/06 08:10:38;;;;;;;6.13;4.90;;;;;;;;;;5100548;28;20454;-62
2023/06/06 08:13:05;;;;;;;10.30;6.60;;;;;;;;;;5101167;28;20540;-60
2023/06/06 08:15:32;;;;;;;9.60;5.93;;;;;;;;;;5101078;28;20544;-58
2023/06/06 08:17:59;;;;;;;6.00;5.00;;;;;;;;;;5100985;28;20982;-60
2023/06/06 08:20:27;;;;;;;7.30;4.90;;;;;;;;;;5100660;28;20454;-60
2023/06/06 08:22:53;;;;;;;8.20;5.07;;;;;;;;;;5100847;28;20526;-62
2023/06/06 08:25:19;;;;;;;5.20;4.50;;;;;;;;;;5100495;28;20551;-59
2023/06/06 08:27:46;;;;;;;7.60;5.40;;;;;;;;;;5100629;28;20514;-59
2023/06/06 08:30:12;;;;;;;7.20;5.20;;;;;;;;;;5100544;28;20526;-60
2023/06/06 08:32:40;;;;;;;7.37;4.90;;;;;;;;;;5100753;28;20439;-58
2023/06/06 08:35:07;;;;;;;6.70;5.03;;;;;;;;;;5100531;28;20531;-59
2023/06/06 08:37:33;;;;;;;10.10;4.90;;;;;;;;;;5101553;28;20435;-59
2023/06/06 08:40:00;;;;;;;7.20;4.73;;;;;;;;;;5100532;28;20869;-58
2023/06/06 08:42:27;;;;;;;5.90;4.27;;;;;;;;;;5100804;28;20483;-59
2023/06/06 08:44:53;;;;;;;7.90;4.90;;;;;;;;;;5100264;28;20586;-58
2023/06/06 08:47:23;;;;;;;6.53;4.53;;;;;;;;;;5101232;28;20515;-58
2023/06/06 08:49:51;;;;;;;5.93;4.10;;;;;;;;;;5100108;28;20462;-60
2023/06/06 08:52:18;;;;;;;4.83;4.43;;;;;;;;;;5100661;28;20447;-58
2023/06/06 08:54:45;;;;;;;6.47;4.00;;;;;;;;;;5099866;28;20531;-59
2023/06/06 08:57:11;;;;;;;8.30;5.00;;;;;;;;;;5104423;28;20811;-60
2023/06/06 08:59:38;;;;;;;6.30;4.70;;;;;;;;;;5103948;28;20517;-60
2023/06/06 09:02:06;;;;;;;7.13;4.47;;;;;;;;;;5104502;28;20839;-59
2023/06/06 09:04:33;;;;;;;5.67;4.07;;;;;;;;;;5100606;28;20547;-59
2023/06/06 09:07:04;;;;;;;5.97;4.17;;;;;;;;;;5103875;28;20450;-58
2023/06/06 09:09:31;;;;;;;5.97;5.10;;;;;;;;;;5092563;28;20514;-60
2023/06/06 09:11:58;;;;;;;11.80;5.27;;;;;;;;;;5103730;28;20896;-58
2023/06/06 09:14:24;;;;;;;7.27;4.90;;;;;;;;;;5104384;28;20507;-59
2023/06/06 09:16:51;;;;;;;6.97;4.60;;;;;;;;;;5104277;28;20473;-61
2023/06/06 09:19:23;;;;;;;5.90;5.00;;;;;;;;;;5103866;28;20478;-58
2023/06/06 09:21:50;;;;;;;7.20;4.90;;;;;;;;;;5103844;28;20995;-58
2023/06/06 09:24:18;;;;;;;5.90;5.30;;;;;;;;;;5104117;28;21004;-61
2023/06/06 09:26:44;;;;;;;4.40;4.00;;;;;;;;;;5103255;28;20470;-61
2023/06/06 09:29:11;;;;;;;7.60;4.60;;;;;;;;;;5103794;28;20800;-61
2023/06/06 09:31:38;;;;;;;10.20;5.50;;;;;;;;;;5103912;28;20508;-59
2023/06/06 09:34:05;;;;;;;6.13;4.50;;;;;;;;;;5104180;28;20508;-58
2023/06/06 09:36:32;;;;;;;7.53;5.07;;;;;;;;;;5103881;28;20975;-58
2023/06/06 09:39:04;;;;;;;9.40;4.93;;;;;;;;;;5103563;28;20443;-58
2023/06/06 09:41:31;;;;;;;6.30;3.93;;;;;;;;;;5094220;28;20451;-58
2023/06/06 09:43:58;;;;;;;6.67;4.23;;;;;;;;;;5103034;28;20597;-58
2023/06/06 09:46:26;;;;;;;6.50;4.57;;;;;;;;;;5103668;28;20502;-58
2023/06/06 09:48:59;;;;;;;5.93;5.30;;;;;;;;;;5103309;28;20526;-59
2023/06/06 09:51:26;;;;;;;5.90;4.63;;;;;;;;;;5103344;28;20450;-59
2023/06/06 09:53:53;;;;;;;7.03;5.57;;;;;;;;;;5103679;28;20451;-58
2023/06/06 09:56:20;;;;;;;6.60;4.90;;;;;;;;;;5102720;28;20490;-59
2023/06/06 09:58:50;;;;;;;7.30;5.00;;;;;;;;;;5103487;28;20462;-59
2023/06/06 10:01:17;;;;;;;5.97;5.03;;;;;;;;;;5102991;28;20519;-58
2023/06/06 10:03:44;;;;;;;10.23;4.77;;;;;;;;;;5103403;28;20647;-59
2023/06/06 10:06:10;;;;;;;6.17;5.10;;;;;;;;;;5102597;28;20534;-59
2023/06/06 10:08:38;;;;;;;7.70;5.07;;;;;;;;;;5102384;28;20450;-60
2023/06/06 10:11:08;;;;;;;6.80;4.80;;;;;;;;;;5102911;28;20457;-60
2023/06/06 10:13:34;;;;;;;8.23;3.70;;;;;;;;;;5103319;28;20463;-58
2023/06/06 10:16:02;;;;;;;6.20;5.50;;;;;;;;;;5103349;28;20466;-60
2023/06/06 10:18:30;;;;;;;7.50;4.47;;;;;;;;;;5102977;28;20517;-59
2023/06/06 10:20:57;;;;;;;5.30;4.37;;;;;;;;;;5102329;28;20451;-61
2023/06/06 10:23:23;;;;;;;8.83;4.90;;;;;;;;;;5103088;28;20517;-60
2023/06/06 10:25:50;;;;;;;8.43;4.50;;;;;;;;;;5102473;28;20451;-59
2023/06/06 10:28:21;;;;;;;6.40;4.80;;;;;;;;;;5102449;28;21021;-59
2023/06/06 10:30:51;;;;;;;9.40;5.20;;;;;;;;;;5102636;28;20486;-60
2023/06/06 10:33:28;;;;;;;7.60;5.40;;;;;;;;;;5102576;28;20483;-60
2023/06/06 10:35:56;;;;;;;8.90;5.30;;;;;;;;;;5089199;28;20518;-60
2023/06/06 10:38:22;;;;;;;7.17;4.67;;;;;;;;;;5102639;28;20518;-60
2023/06/06 10:40:52;;;;;;;6.00;5.33;;;;;;;;;;5102105;28;20541;-61
2023/06/06 10:43:37;;;;;;;5.67;4.43;;;;;;;;;;5102529;28;20481;-60
2023/06/06 10:46:03;;;;;;;6.43;4.80;;;;;;;;;;5102360;28;20447;-59
2023/06/06 10:48:38;;;;;;;5.37;4.77;;;;;;;;;;5102357;28;20477;-58
2023/06/06 10:51:05;;;;;;;6.10;4.27;;;;;;;;;;5101692;28;20446;-58
2023/06/06 10:53:31;;;;;;;5.87;4.50;;;;;;;;;;5097413;28;20523;-58
2023/06/06 10:55:58;;;;;;;7.50;5.30;;;;;;;;;;5101172;28;20622;-58
2023/06/06 10:58:28;;;;;;;5.93;4.50;;;;;;;;;;5102355;28;20558;-58
2023/06/06 11:00:58;;;;;;;6.90;4.57;;;;;;;;;;5101818;28;20467;-58
2023/06/06 11:03:32;;;;;;;8.13;4.20;;;;;;;;;;5101968;28;20515;-59
2023/06/06 11:06:13;;;;;;;8.53;5.17;;;;;;;;;;5101120;28;20603;-58
2023/06/06 11:08:40;;;;;;;4.37;3.97;;;;;;;;;;5102050;28;20474;-58
2023/06/06 11:11:20;;;;;;;4.40;4.00;;;;;;;;;;5101882;28;20455;-59
2023/06/06 11:13:56;;;;;;;5.97;4.87;;;;;;;;;;5102376;28;20474;-60
2023/06/06 11:16:29;;;;;;;6.90;4.53;;;;;;;;;;5102075;28;20480;-59
2023/06/06 11:19:01;;;;;;;6.83;3.90;;;;;;;;;;5101854;28;20447;-60
2023/06/06 11:21:29;;;;;;;6.97;4.53;;;;;;;;;;5101194;28;20538;-59
2023/06/06 11:23:56;;;;;;;4.80;4.13;;;;;;;;;;5101527;28;20546;-59
2023/06/06 11:26:22;;;;;;;5.50;4.53;;;;;;;;;;5101041;28;20474;-59
2023/06/06 11:28:49;;;;;;;5.70;4.20;;;;;;;;;;5101353;28;20510;-58
2023/06/06 11:31:20;;;;;;;4.33;3.93;;;;;;;;;;5101130;28;20602;-58
2023/06/06 11:33:46;;;;;;;6.07;3.93;;;;;;;;;;5101450;28;20538;-59
2023/06/06 11:36:13;;;;;;;8.47;5.07;;;;;;;;;;5100613;28;20459;-60
2023/06/06 11:38:42;;;;;;;6.47;4.07;;;;;;;;;;5101492;28;20459;-58
2023/06/06 11:41:08;;;;;;;5.40;4.23;;;;;;;;;;5100931;28;20478;-60
2023/06/06 11:43:35;;;;;;;8.40;4.83;;;;;;;;;;5101153;28;20490;-60
2023/06/06 11:46:05;;;;;;;5.37;4.20;;;;;;;;;;5101057;28;20570;-58
2023/06/06 11:48:31;;;;;;;9.97;4.43;;;;;;;;;;5101301;28;20466;-59
2023/06/06 11:51:10;;;;;;;5.93;4.27;;;;;;;;;;5100386;28;20873;-58
2023/06/06 11:53:36;;;;;;;6.13;4.40;;;;;;;;;;5101518;28;20986;-59
2023/06/06 11:56:05;;;;;;;8.07;4.13;;;;;;;;;;5091733;28;20447;-59
2023/06/06 11:58:33;;;;;;;4.53;3.97;;;;;;;;;;5101189;28;20439;-59
2023/06/06 12:01:04;;;;;;;5.13;3.90;;;;;;;;;;5100780;28;20475;-59
2023/06/06 12:03:33;;;;;;;5.63;3.50;;;;;;;;;;5101055;28;20457;-60
2023/06/06 12:06:00;;;;;;;9.50;4.20;;;;;;;;;;5100546;28;20494;-59
2023/06/06 12:08:26;;;;;;;5.63;4.10;;;;;;;;;;5101255;28;20442;-59
2023/06/06 12:10:53;;;;;;;8.77;3.90;;;;;;;;;;5100636;28;20474;-59
2023/06/06 12:13:32;;;;;;;5.77;4.03;;;;;;;;;;5101151;28;20479;-58
2023/06/06 12:15:59;;;;;;;5.80;4.50;;;;;;;;;;5101187;28;20447;-58
2023/06/06 12:18:25;;;;;;;5.20;4.13;;;;;;;;;;5100699;28;20471;-59
2023/06/06 12:20:53;;;;;;;6.87;4.40;;;;;;;;;;5100373;28;20451;-60
2023/06/06 12:23:26;;;;;;;6.10;4.00;;;;;;;;;;5100828;28;20443;-59
2023/06/06 12:25:55;;;;;;;5.87;4.30;;;;;;;;;;5100321;28;20490;-60
2023/06/06 12:28:21;;;;;;;7.53;4.60;;;;;;;;;;5100905;28;20451;-59
2023/06/06 12:30:51;;;;;;;6.20;3.97;;;;;;;;;;5101907;28;20974;-58
2023/06/06 12:33:17;;;;;;;5.33;3.70;;;;;;;;;;5104997;28;20459;-59
2023/06/06 12:35:45;;;;;;;5.73;4.10;;;;;;;;;;5103015;28;20459;-62
2023/06/06 12:38:18;;;;;;;5.27;3.73;;;;;;;;;;5104912;28;20439;-60
2023/06/06 12:40:53;;;;;;;5.03;3.40;;;;;;;;;;5103559;28;20498;-59
2023/06/06 12:43:19;;;;;;;5.60;3.90;;;;;;;;;;5103258;28;20518;-59
2023/06/06 12:45:46;;;;;;;7.97;4.40;;;;;;;;;;5103835;28;20486;-60
2023/06/06 12:48:15;;;;;;;7.03;4.90;;;;;;;;;;5104680;28;20516;-59
2023/06/06 12:50:43;;;;;;;6.17;4.10;;;;;;;;;;5104425;28;20465;-59
2023/06/06 12:53:12;;;;;;;7.70;5.30;;;;;;;;;;5104700;28;21011;-59
2023/06/06 12:55:38;;;;;;;6.00;4.67;;;;;;;;;;5109727;28;20462;-59
2023/06/06 12:58:06;;;;;;;6.33;4.23;;;;;;;;;;5104446;28;20482;-60
2023/06/06 13:00:32;;;;;;;5.13;4.17;;;;;;;;;;5104254;28;20450;-62
2023/06/06 13:02:59;;;;;;;5.33;3.73;;;;;;;;;;5103817;28;20458;-61
2023/06/06 13:05:26;;;;;;;5.00;3.80;;;;;;;;;;5102457;28;20491;-59
2023/06/06 13:07:53;;;;;;;4.83;3.60;;;;;;;;;;5103367;28;20510;-61
2023/06/06 13:10:19;;;;;;;5.07;3.97;;;;;;;;;;5104030;28;20535;-58
2023/06/06 13:12:46;;;;;;;5.97;3.57;;;;;;;;;;5104425;28;20524;-59
2023/06/06 13:15:13;;;;;;;4.87;4.00;;;;;;;;;;5103043;28;20466;-60
2023/06/06 13:17:39;;;;;;;6.73;3.50;;;;;;;;;;5103867;28;20446;-60
2023/06/06 13:20:08;;;;;;;7.73;3.70;;;;;;;;;;5103314;28;20518;-59
2023/06/06 13:22:36;;;;;;;4.63;3.20;;;;;;;;;;5102754;28;20464;-59
2023/06/06 13:25:03;;;;;;;6.37;4.00;;;;;;;;;;5102023;28;20997;-58
2023/06/06 13:27:29;;;;;;;4.80;3.83;;;;;;;;;;5102753;28;20494;-62
2023/06/06 13:29:56;;;;;;;4.30;3.50;;;;;;;;;;5103925;28;20455;-59
2023/06/06 13:32:23;;;;;;;5.17;3.67;;;;;;;;;;5102967;28;20508;-60
2023/06/06 13:34:49;;;;;;;4.67;3.13;;;;;;;;;;5103413;28;20445;-60
2023/06/06 13:37:16;;;;;;;4.90;3.23;;;;;;;;;;5098925;28;20451;-60
2023/06/06 13:39:43;;;;;;;4.90;3.63;;;;;;;;;;5103161;28;20529;-60
2023/06/06 13:42:10;;;;;;;4.50;3.50;;;;;;;;;;5101606;28;20451;-58
2023/06/06 13:44:36;;;;;;;6.03;4.13;;;;;;;;;;5103402;28;20492;-60
2023/06/06 13:47:03;;;;;;;5.57;3.77;;;;;;;;;;5103691;28;20534;-60
2023/06/06 13:49:30;;;;;;;4.03;3.60;;;;;;;;;;5103603;28;20455;-57
2023/06/06 13:51:56;;;;;;;4.90;3.70;;;;;;;;;;5102952;28;20534;-58
2023/06/06 13:54:23;;;;;;;5.07;3.40;;;;;;;;;;5102402;28;20455;-58
2023/06/06 13:56:54;;;;;;;6.60;4.20;;;;;;;;;;5102974;28;20445;-58
2023/06/06 13:59:20;;;;;;;10.07;3.83;;;;;;;;;;5102063;28;20455;-58
2023/06/06 14:01:50;;;;;;;5.03;3.50;;;;;;;;;;5102844;28;20460;-59
2023/06/06 14:04:16;;;;;;;4.00;3.20;;;;;;;;;;5103172;28;20493;-58
2023/06/06 14:06:43;;;;;;;7.07;4.20;;;;;;;;;;5101894;28;20518;-58
2023/06/06 14:09:09;;;;;;;5.37;3.60;;;;;;;;;;5103088;28;20501;-58
2023/06/06 14:11:36;;;;;;;9.37;4.20;;;;;;;;;;5102903;28;20455;-58
2023/06/06 14:14:04;;;;;;;4.13;3.47;;;;;;;;;;5102191;28;20805;-58
2023/06/06 14:16:30;;;;;;;6.97;3.60;;;;;;;;;;5101796;28;20463;-58
2023/06/06 14:18:57;;;;;;;5.10;3.40;;;;;;;;;;5102553;28;20534;-57
2023/06/06 14:21:56;;;;;;;4.20;3.43;;;;;;;;;;5102018;28;20523;-57
2023/06/06 14:24:22;;;;;;;8.37;3.67;;;;;;;;;;5097117;28;20855;-58
2023/06/06 14:26:49;;;;;;;6.80;3.50;;;;;;;;;;5099861;28;20573;-58
2023/06/06 14:29:17;;;;;;;5.40;3.63;;;;;;;;;;5098858;28;20514;-58
2023/06/06 14:31:43;;;;;;;3.87;2.87;;;;;;;;;;5102281;28;20473;-59
2023/06/06 14:34:10;;;;;;;4.13;3.40;;;;;;;;;;5102714;28;20486;-59
2023/06/06 14:36:36;;;;;;;4.07;2.93;;;;;;;;;;5102184;28;20537;-59
2023/06/06 14:39:03;;;;;;;6.00;3.70;;;;;;;;;;5102664;28;20465;-58